Yellow Pine, Alabama
Current Conditions -  °F | °C
As of 11:56 AM on Wednesday 26 Nov 2014 (Local Time) from KMOB Reporting Station
Clear Clear  
Wind Chill: 60°   Ceiling: Unl
Heat Index: 60°   Visibility: 10mi
Dew Point: 27°   Wind: 8mph
Humidity: 28%   Direction: 280°W
Pressure: 30.22"   Gusts: NA
Location:  31.3356°N, 88.3227°W
Report Text: KMOB 261756Z 28007KT 10SM CLR 16/M03 A3022 RMK AO2 SLP230 T01561028 10156 20011 58018
Loading
Personal Weather Stations






























Interactive Weather Map New forecast layout! Learn more

10-Day Weather Forecast

Advertisements
Track Severe Weather on mobile